createdAt,value
2023-03-21T00:00:20.724Z,97364.31
2023-03-21T00:02:47.142Z,97364.41
2023-03-21T00:05:15.791Z,97378.56
2023-03-21T00:07:43.207Z,97354.13
2023-03-21T00:10:16.598Z,97355.97
2023-03-21T00:12:46.208Z,97356.41
2023-03-21T00:15:12.863Z,97357.72
2023-03-21T00:17:39.808Z,97352.56
2023-03-21T00:20:15.076Z,97358.75
2023-03-21T00:22:42.277Z,97345.09
2023-03-21T00:25:10.469Z,97350.72
2023-03-21T00:27:53.222Z,97348.13
2023-03-21T00:30:24.003Z,97346.28
2023-03-21T00:32:56.590Z,97335.19
2023-03-21T00:35:54.086Z,97333.94
2023-03-21T00:38:10.324Z,97335.41
2023-03-21T00:40:43.729Z,97330.69
2023-03-21T00:43:17.424Z,97342.69
2023-03-21T00:45:44.873Z,97332.56
2023-03-21T00:48:11.299Z,97322.72
2023-03-21T00:50:38.945Z,97331.06
2023-03-21T00:53:06.175Z,97332.88
2023-03-21T00:55:32.622Z,97318.53
2023-03-21T00:58:02.121Z,97329.16
2023-03-21T01:00:29.408Z,97330.50
2023-03-21T01:03:04.312Z,97333.41
2023-03-21T01:05:52.360Z,97327.44
2023-03-21T01:08:26.532Z,97329.84
2023-03-21T01:10:55.679Z,97313.84
2023-03-21T01:13:24.587Z,97315.44
2023-03-21T01:15:54.406Z,97310.31
2023-03-21T01:18:25.257Z,97317.53
2023-03-21T01:20:52.020Z,97314.94
2023-03-21T01:23:18.389Z,97308.00
2023-03-21T01:25:48.127Z,97300.03
2023-03-21T01:28:14.694Z,97291.56
2023-03-21T01:30:46.321Z,97309.88
2023-03-21T01:33:13.153Z,97308.09
2023-03-21T01:35:49.136Z,97309.69
2023-03-21T01:38:20.439Z,97315.38
2023-03-21T01:40:49.254Z,97310.75
2023-03-21T01:43:21.919Z,97303.78
2023-03-21T01:46:10.304Z,97301.75
2023-03-21T01:48:39.500Z,97308.41
2023-03-21T01:51:06.548Z,97292.78
2023-03-21T01:53:37.998Z,97283.47
2023-03-21T01:56:18.330Z,97290.97
2023-03-21T01:58:45.542Z,97291.69
2023-03-21T02:01:12.268Z,97282.47
2023-03-21T02:03:50.930Z,97285.38
2023-03-21T02:06:25.776Z,97293.91
2023-03-21T02:08:53.204Z,97272.84
2023-03-21T02:11:21.128Z,97285.34
2023-03-21T02:13:48.737Z,97288.75
2023-03-21T02:16:28.354Z,97266.63
2023-03-21T02:19:15.721Z,97275.56
2023-03-21T02:22:04.068Z,97261.44
2023-03-21T02:24:59.631Z,97271.69
2023-03-21T02:27:34.679Z,97270.72
2023-03-21T02:30:13.037Z,97271.50
2023-03-21T02:33:22.594Z,97267.66
2023-03-21T02:36:00.598Z,97270.22
2023-03-21T02:38:43.699Z,97264.81
2023-03-21T02:41:19.029Z,97265.09
2023-03-21T02:44:25.241Z,97273.59
2023-03-21T02:47:06.321Z,97252.50
2023-03-21T02:49:42.835Z,97262.00
2023-03-21T02:52:22.907Z,97259.22
2023-03-21T02:54:56.929Z,97255.56
2023-03-21T02:57:26.992Z,97243.78
2023-03-21T03:00:00.408Z,97258.16
2023-03-21T03:02:31.749Z,97241.03
2023-03-21T03:04:58.837Z,97255.16
2023-03-21T03:07:41.409Z,97241.31
2023-03-21T03:10:19.759Z,97249.00
2023-03-21T03:12:55.412Z,97249.03
2023-03-21T03:15:51.491Z,97244.41
2023-03-21T03:18:27.902Z,97240.28
2023-03-21T03:21:12.932Z,97239.03
2023-03-21T03:23:50.518Z,97236.41
2023-03-21T03:26:28.610Z,97242.78
2023-03-21T03:28:59.112Z,97235.56
2023-03-21T03:31:31.848Z,97230.88
2023-03-21T03:34:03.545Z,97223.72
2023-03-21T03:36:35.665Z,97232.19
2023-03-21T03:39:05.836Z,97231.94
2023-03-21T03:42:02.928Z,97225.25
2023-03-21T03:44:25.954Z,97216.47
2023-03-21T03:46:59.496Z,97225.72
2023-03-21T03:49:30.806Z,97228.00
2023-03-21T03:52:19.901Z,97219.75
2023-03-21T03:54:48.387Z,97218.47
2023-03-21T03:57:16.043Z,97228.50
2023-03-21T03:59:44.346Z,97233.63
2023-03-21T04:02:10.878Z,97228.25
2023-03-21T04:04:37.396Z,97237.13
2023-03-21T04:07:04.246Z,97226.53
2023-03-21T04:09:43.072Z,97232.97
2023-03-21T04:12:10.448Z,97232.69
2023-03-21T04:14:44.532Z,97232.19
2023-03-21T04:17:12.522Z,97220.88
2023-03-21T04:19:38.970Z,97228.75
2023-03-21T04:22:05.913Z,97214.63
2023-03-21T04:24:33.836Z,97217.25
2023-03-21T04:27:00.868Z,97216.78
2023-03-21T04:29:29.384Z,97213.19
2023-03-21T04:31:56.092Z,97223.69
2023-03-21T04:34:24.093Z,97218.78
2023-03-21T04:36:50.907Z,97220.78
2023-03-21T04:39:18.304Z,97216.88
2023-03-21T04:41:46.610Z,97217.66
2023-03-21T04:44:14.854Z,97219.72
2023-03-21T04:46:42.366Z,97213.25
2023-03-21T04:49:09.047Z,97214.31
2023-03-21T04:51:36.728Z,97208.09
2023-03-21T04:54:03.272Z,97215.78
2023-03-21T04:56:34.039Z,97214.25
2023-03-21T04:59:05.942Z,97212.22
2023-03-21T05:01:32.556Z,97201.66
2023-03-21T05:04:03.204Z,97207.09
2023-03-21T05:06:30.606Z,97201.69
2023-03-21T05:09:01.607Z,97204.53
2023-03-21T05:11:30.752Z,97216.38
2023-03-21T05:13:58.438Z,97212.78
2023-03-21T05:16:26.918Z,97207.38
2023-03-21T05:18:54.794Z,97210.19
2023-03-21T05:21:22.282Z,97207.63
2023-03-21T05:23:54.787Z,97207.31
2023-03-21T05:26:22.992Z,97211.72
2023-03-21T05:28:50.046Z,97198.59
2023-03-21T05:31:18.605Z,97203.47
2023-03-21T05:33:45.850Z,97216.09
2023-03-21T05:36:13.591Z,97208.09
2023-03-21T05:38:45.704Z,97216.38
2023-03-21T05:41:18.166Z,97212.44
2023-03-21T05:43:45.764Z,97202.91
2023-03-21T05:46:12.284Z,97204.72
2023-03-21T05:48:39.229Z,97206.22
2023-03-21T05:51:06.073Z,97194.13
2023-03-21T05:53:32.440Z,97199.03
2023-03-21T05:55:58.790Z,97206.88
2023-03-21T05:58:25.364Z,97197.38
2023-03-21T06:00:51.727Z,97199.59
2023-03-21T06:03:18.429Z,97196.06
2023-03-21T06:05:44.842Z,97192.53
2023-03-21T06:08:11.259Z,97188.94
2023-03-21T06:10:37.620Z,97194.03
2023-03-21T06:13:04.667Z,97199.63
2023-03-21T06:15:31.119Z,97197.28
2023-03-21T06:17:57.557Z,97193.47
2023-03-21T06:20:23.902Z,97201.00
2023-03-21T06:22:50.348Z,97207.81
2023-03-21T06:25:17.069Z,97208.50
2023-03-21T06:27:43.428Z,97199.97
2023-03-21T06:30:10.901Z,97197.72
2023-03-21T06:32:37.309Z,97195.75
2023-03-21T06:35:03.921Z,97207.34
2023-03-21T06:37:30.736Z,97198.34
2023-03-21T06:39:57.097Z,97192.13
2023-03-21T06:42:23.658Z,97196.47
2023-03-21T06:44:50.203Z,97212.44
2023-03-21T06:47:16.628Z,97213.59
2023-03-21T06:49:43.831Z,97213.78
2023-03-21T06:52:11.129Z,97210.41
2023-03-21T06:54:37.597Z,97197.88
2023-03-21T06:57:04.012Z,97194.03
2023-03-21T06:59:30.418Z,97218.97
2023-03-21T07:01:57.157Z,97202.19
2023-03-21T07:04:23.546Z,97202.88
2023-03-21T07:06:49.933Z,97207.19
2023-03-21T07:09:17.838Z,97205.94
2023-03-21T07:11:44.256Z,97215.53
2023-03-21T07:14:10.637Z,97199.03
2023-03-21T07:16:37.010Z,97207.75
2023-03-21T07:19:03.400Z,97219.09
2023-03-21T07:21:29.726Z,97207.19
2023-03-21T07:23:56.174Z,97216.59
2023-03-21T07:26:22.725Z,97222.06
2023-03-21T07:28:49.095Z,97232.78
2023-03-21T07:31:17.199Z,97218.31
2023-03-21T07:33:43.644Z,97226.47
2023-03-21T07:36:15.245Z,97219.00
2023-03-21T07:38:43.579Z,97219.66
2023-03-21T07:41:10.239Z,97232.22
2023-03-21T07:43:38.393Z,97227.81
2023-03-21T07:46:06.103Z,97227.53
2023-03-21T07:48:32.677Z,97216.75
2023-03-21T07:50:59.178Z,97229.63
2023-03-21T07:53:25.518Z,97233.56
2023-03-21T07:55:55.600Z,97234.22
2023-03-21T07:58:23.479Z,97223.59
2023-03-21T08:00:49.919Z,97227.84
2023-03-21T08:03:16.295Z,97224.69
2023-03-21T08:05:44.143Z,97218.25
2023-03-21T08:08:11.014Z,97226.97
2023-03-21T08:10:37.460Z,97226.75
2023-03-21T08:13:04.175Z,97227.31
2023-03-21T08:15:31.308Z,97223.38
2023-03-21T08:17:59.856Z,97235.97
2023-03-21T08:20:27.336Z,97227.88
2023-03-21T08:22:54.278Z,97214.78
2023-03-21T08:25:22.030Z,97231.44
2023-03-21T08:27:49.757Z,97219.81
2023-03-21T08:30:20.359Z,97230.06
2023-03-21T08:32:46.748Z,97222.28
2023-03-21T08:35:15.956Z,97227.06
2023-03-21T08:37:43.206Z,97230.41
2023-03-21T08:40:13.186Z,97227.81
2023-03-21T08:42:41.086Z,97229.72
2023-03-21T08:45:08.771Z,97223.88
2023-03-21T08:47:35.280Z,97232.31
2023-03-21T08:50:02.226Z,97233.97
2023-03-21T08:52:28.657Z,97212.00
2023-03-21T08:54:55.194Z,97224.00
2023-03-21T08:57:21.807Z,97226.06
2023-03-21T08:59:48.210Z,97222.31
2023-03-21T09:02:16.731Z,97224.28
2023-03-21T09:04:44.799Z,97232.50
2023-03-21T09:07:18.028Z,97219.59
2023-03-21T09:09:45.950Z,97230.53
2023-03-21T09:12:14.153Z,97216.78
2023-03-21T09:14:41.119Z,97230.81
2023-03-21T09:17:07.480Z,97220.63
2023-03-21T09:19:34.803Z,97233.41
2023-03-21T09:22:01.712Z,97232.44
2023-03-21T09:24:28.173Z,97213.88
2023-03-21T09:26:54.610Z,97239.00
2023-03-21T09:29:21.504Z,97230.03
2023-03-21T09:31:48.193Z,97233.97
2023-03-21T09:34:15.652Z,97236.72
2023-03-21T09:36:44.218Z,97238.59
2023-03-21T09:39:11.936Z,97235.84
2023-03-21T09:41:59.706Z,97238.94
2023-03-21T09:44:49.118Z,97241.66
2023-03-21T09:47:24.990Z,97228.22
2023-03-21T09:50:12.858Z,97228.63
2023-03-21T09:52:50.634Z,97235.91
2023-03-21T09:55:21.297Z,97237.56
2023-03-21T09:57:54.912Z,97230.94
2023-03-21T10:00:30.813Z,97236.91
2023-03-21T10:03:03.012Z,97224.44
2023-03-21T10:05:32.702Z,97223.19
2023-03-21T10:08:07.153Z,97233.19
2023-03-21T10:10:47.318Z,97229.25
2023-03-21T10:13:36.280Z,97221.84
2023-03-21T10:16:25.247Z,97228.47
2023-03-21T10:18:52.218Z,97226.00
2023-03-21T10:21:51.510Z,97219.09
2023-03-21T10:24:17.552Z,97238.50
2023-03-21T10:26:45.854Z,97226.88
2023-03-21T10:29:16.723Z,97233.00
2023-03-21T10:31:45.239Z,97224.88
2023-03-21T10:34:26.504Z,97236.28
2023-03-21T10:36:53.946Z,97226.75
2023-03-21T10:39:39.646Z,97227.75
2023-03-21T10:42:06.725Z,97236.78
2023-03-21T10:44:35.531Z,97235.13
2023-03-21T10:47:08.260Z,97233.19
2023-03-21T10:49:56.469Z,97238.47
2023-03-21T10:52:28.610Z,97226.34
2023-03-21T10:55:15.734Z,97234.59
2023-03-21T10:57:42.257Z,97228.25
2023-03-21T11:00:18.781Z,97227.66
2023-03-21T11:02:49.498Z,97230.72
2023-03-21T11:05:36.640Z,97229.00
2023-03-21T11:08:15.521Z,97225.47
2023-03-21T11:10:52.673Z,97231.66
2023-03-21T11:13:40.730Z,97233.56
2023-03-21T11:16:10.799Z,97234.81
2023-03-21T11:18:43.080Z,97224.63
2023-03-21T11:21:13.168Z,97233.00
2023-03-21T11:23:47.746Z,97202.75
2023-03-21T11:26:27.333Z,97212.75
2023-03-21T11:28:54.964Z,97213.13
2023-03-21T11:31:24.791Z,97202.94
2023-03-21T11:33:56.939Z,97200.66
2023-03-21T11:36:23.331Z,97203.16
2023-03-21T11:38:52.619Z,97211.19
2023-03-21T11:41:28.469Z,97202.84
2023-03-21T11:43:55.100Z,97208.91
2023-03-21T11:46:30.746Z,97200.81
2023-03-21T11:48:59.238Z,97199.38
2023-03-21T11:51:55.528Z,97196.72
2023-03-21T11:54:35.487Z,97189.63
2023-03-21T11:57:35.656Z,97188.00
2023-03-21T12:00:10.669Z,97186.66
2023-03-21T12:02:55.677Z,97184.16
2023-03-21T12:05:28.588Z,97182.16
2023-03-21T12:08:13.464Z,97180.88
2023-03-21T12:10:47.222Z,97178.31
2023-03-21T12:13:38.905Z,97168.31
2023-03-21T12:16:33.559Z,97170.63
2023-03-21T12:19:30.452Z,97173.59
2023-03-21T12:22:35.551Z,97167.94
2023-03-21T12:25:12.925Z,97165.91
2023-03-21T12:27:46.481Z,97160.44
2023-03-21T12:30:39.774Z,97151.22
2023-03-21T12:33:13.456Z,97152.38
2023-03-21T12:35:56.690Z,97139.16
2023-03-21T12:38:36.432Z,97140.56
2023-03-21T12:41:09.449Z,97146.34
2023-03-21T12:43:56.282Z,97145.28
2023-03-21T12:46:34.000Z,97135.13
2023-03-21T12:49:13.697Z,97124.75
2023-03-21T12:51:44.519Z,97133.47
2023-03-21T12:54:37.993Z,97129.38
2023-03-21T12:57:08.539Z,97127.91
2023-03-21T12:59:39.360Z,97117.88
2023-03-21T13:02:20.285Z,97122.28
2023-03-21T13:05:00.124Z,97115.34
2023-03-21T13:07:31.302Z,97117.94
2023-03-21T13:09:59.372Z,97118.59
2023-03-21T13:12:31.920Z,97114.28
2023-03-21T13:15:24.071Z,97117.06
2023-03-21T13:18:13.542Z,97102.41
2023-03-21T13:20:56.025Z,97097.31
2023-03-21T13:23:24.564Z,97101.81
2023-03-21T13:25:55.641Z,97094.81
2023-03-21T13:28:27.447Z,97095.41
2023-03-21T13:31:13.976Z,97093.78
2023-03-21T13:33:44.617Z,97093.56
2023-03-21T13:36:16.270Z,97093.69
2023-03-21T13:38:50.541Z,97078.25
2023-03-21T13:41:31.967Z,97076.59
2023-03-21T13:44:04.387Z,97088.69
2023-03-21T13:46:35.871Z,97080.63
2023-03-21T13:49:09.755Z,97079.28
2023-03-21T13:51:36.050Z,97079.97
2023-03-21T13:54:08.154Z,97070.84
2023-03-21T13:56:46.729Z,97063.09
2023-03-21T13:59:16.953Z,97067.59
2023-03-21T14:02:03.635Z,97060.03
2023-03-21T14:04:42.413Z,97048.63
2023-03-21T14:07:36.577Z,97033.34
2023-03-21T14:10:06.929Z,97007.28
2023-03-21T14:12:40.615Z,97023.66
2023-03-21T14:15:31.029Z,97008.03
2023-03-21T14:18:06.399Z,96992.78
2023-03-21T14:20:43.542Z,97005.84
2023-03-21T14:23:17.377Z,97019.38
2023-03-21T14:25:47.799Z,97021.84
2023-03-21T14:28:21.642Z,97028.84
2023-03-21T14:30:53.746Z,97035.00
2023-03-21T14:33:27.184Z,97027.88
2023-03-21T14:35:58.077Z,97033.44
2023-03-21T14:38:28.527Z,97027.47
2023-03-21T14:40:57.102Z,97030.44
2023-03-21T14:43:24.363Z,97029.88
2023-03-21T14:45:53.080Z,97026.25
2023-03-21T14:48:20.506Z,97021.38
2023-03-21T14:50:55.931Z,97023.53
2023-03-21T14:53:36.085Z,97004.63
2023-03-21T14:56:08.753Z,97016.72
2023-03-21T14:58:39.145Z,97012.59
2023-03-21T15:01:07.378Z,97004.72
2023-03-21T15:03:34.793Z,96999.97
2023-03-21T15:06:01.839Z,96986.59
2023-03-21T15:08:28.974Z,96984.09
2023-03-21T15:11:06.883Z,96990.84
2023-03-21T15:13:45.601Z,96994.63
2023-03-21T15:16:14.889Z,97004.59
2023-03-21T15:18:42.806Z,97012.09
2023-03-21T15:21:18.302Z,97001.03
2023-03-21T15:23:47.478Z,97013.03
2023-03-21T15:26:20.391Z,97022.81
2023-03-21T15:28:49.743Z,97022.50
2023-03-21T15:31:25.313Z,97025.53
2023-03-21T15:33:53.694Z,97019.09
2023-03-21T15:36:23.244Z,97007.31
2023-03-21T15:38:50.449Z,97008.28
2023-03-21T15:41:19.642Z,97016.22
2023-03-21T15:43:47.745Z,97002.91
2023-03-21T15:46:17.616Z,96997.59
2023-03-21T15:48:44.566Z,96988.88
2023-03-21T15:51:23.028Z,96994.94
2023-03-21T15:53:53.970Z,96979.13
2023-03-21T15:56:22.516Z,96995.22
2023-03-21T15:58:52.370Z,96986.28
2023-03-21T16:01:22.770Z,96982.44
2023-03-21T16:03:56.976Z,96966.31
2023-03-21T16:06:35.151Z,96981.28
2023-03-21T16:09:13.924Z,96973.72
2023-03-21T16:11:49.964Z,96973.31
2023-03-21T16:14:17.600Z,96978.69
2023-03-21T16:16:45.687Z,96982.13
2023-03-21T16:19:12.253Z,96978.41
2023-03-21T16:21:38.928Z,96971.38
2023-03-21T16:24:06.730Z,96975.41
2023-03-21T16:26:38.201Z,96974.28
2023-03-21T16:29:05.901Z,96958.28
2023-03-21T16:31:33.951Z,96968.91
2023-03-21T16:34:01.615Z,96954.81
2023-03-21T16:36:40.085Z,96954.72
2023-03-21T16:39:17.329Z,96964.13
2023-03-21T16:41:43.904Z,96957.63
2023-03-21T16:44:10.917Z,96948.88
2023-03-21T16:46:37.495Z,96935.94
2023-03-21T16:49:04.596Z,96945.13
2023-03-21T16:51:34.079Z,96932.50
2023-03-21T16:54:00.921Z,96931.53
2023-03-21T16:56:33.429Z,96921.47
2023-03-21T16:58:59.860Z,96931.06
2023-03-21T17:01:27.399Z,96934.19
2023-03-21T17:03:54.129Z,96933.31
2023-03-21T17:06:24.373Z,96924.53
2023-03-21T17:08:51.772Z,96940.91
2023-03-21T17:11:20.354Z,96939.56
2023-03-21T17:13:51.670Z,96939.38
2023-03-21T17:16:26.157Z,96945.31
2023-03-21T17:18:53.236Z,96947.84
2023-03-21T17:21:25.356Z,96945.06
2023-03-21T17:23:52.748Z,96941.69
2023-03-21T17:26:25.560Z,96945.06
2023-03-21T17:28:55.234Z,96947.50
2023-03-21T17:31:23.840Z,96957.25
2023-03-21T17:33:50.842Z,96955.91
2023-03-21T17:36:20.471Z,96947.84
2023-03-21T17:38:47.138Z,96942.31
2023-03-21T17:41:18.233Z,96949.44
2023-03-21T17:43:45.227Z,96937.22
2023-03-21T17:46:17.193Z,96951.00
2023-03-21T17:48:44.974Z,96958.09
2023-03-21T17:51:14.700Z,96956.63
2023-03-21T17:53:41.781Z,96957.34
2023-03-21T17:56:17.490Z,96955.44
2023-03-21T17:58:44.071Z,96965.63
2023-03-21T18:01:10.533Z,96942.63
2023-03-21T18:03:36.959Z,96948.38
2023-03-21T18:06:03.866Z,96958.31
2023-03-21T18:08:30.237Z,96973.47
2023-03-21T18:10:56.635Z,96953.75
2023-03-21T18:13:23.083Z,96965.13
2023-03-21T18:15:50.685Z,96975.72
2023-03-21T18:18:17.594Z,96967.28
2023-03-21T18:20:54.072Z,96971.13
2023-03-21T18:23:21.287Z,96976.81
2023-03-21T18:25:48.197Z,96984.19
2023-03-21T18:28:19.505Z,96979.31
2023-03-21T18:31:19.599Z,96987.94
2023-03-21T18:33:40.199Z,96971.44
2023-03-21T18:36:08.199Z,96978.63
2023-03-21T18:38:35.646Z,96978.63
2023-03-21T18:41:02.210Z,96989.28
2023-03-21T18:46:15.881Z,96993.28
2023-03-21T18:48:42.652Z,97000.22
2023-03-21T18:51:10.060Z,96986.03
2023-03-21T18:53:36.428Z,96987.84
2023-03-21T18:56:02.829Z,96983.34
2023-03-21T18:58:29.391Z,96987.44
2023-03-21T19:00:58.965Z,96994.38
2023-03-21T19:03:35.695Z,96971.75
2023-03-21T19:06:04.667Z,96975.19
2023-03-21T19:08:31.663Z,96977.19
2023-03-21T19:11:00.108Z,96978.94
2023-03-21T19:13:29.933Z,96962.34
2023-03-21T19:15:57.037Z,96962.34
2023-03-21T19:18:41.579Z,96970.03
2023-03-21T19:21:09.802Z,96980.09
2023-03-21T19:24:11.694Z,96974.53
2023-03-21T19:26:23.562Z,96979.59
2023-03-21T19:28:50.003Z,96971.06
2023-03-21T19:31:17.863Z,96981.03
2023-03-21T19:33:44.954Z,96982.94
2023-03-21T19:36:21.603Z,96972.47
2023-03-21T19:38:48.869Z,96958.09
2023-03-21T19:41:15.465Z,96964.75
2023-03-21T19:43:51.483Z,96982.00
2023-03-21T19:46:23.139Z,96985.72
2023-03-21T19:48:50.071Z,96983.63
2023-03-21T19:51:32.983Z,96974.03
2023-03-21T19:54:02.193Z,96984.75
2023-03-21T19:56:28.700Z,96988.38
2023-03-21T19:58:55.980Z,96987.69
2023-03-21T20:01:24.541Z,96986.34
2023-03-21T20:03:51.440Z,96986.88
2023-03-21T20:06:18.476Z,96995.59
2023-03-21T20:11:31.782Z,97005.22
2023-03-21T20:13:59.703Z,97000.09
2023-03-21T20:16:33.631Z,96998.94
2023-03-21T20:19:00.784Z,96997.25
2023-03-21T20:21:33.299Z,96987.00
2023-03-21T20:24:03.702Z,96995.38
2023-03-21T20:26:30.966Z,96988.13
2023-03-21T20:29:21.694Z,96982.03
2023-03-21T20:31:44.345Z,96987.41
2023-03-21T20:34:10.681Z,96980.78
2023-03-21T20:36:40.405Z,96976.38
2023-03-21T20:39:07.612Z,96993.50
2023-03-21T20:41:34.176Z,96990.47
2023-03-21T20:46:49.727Z,96971.22
2023-03-21T20:49:16.156Z,96975.28
2023-03-21T20:54:29.935Z,96966.69
2023-03-21T20:56:57.159Z,96975.75
2023-03-21T20:59:27.704Z,96983.50
2023-03-21T21:01:56.093Z,96971.31
2023-03-21T21:04:41.238Z,96981.84
2023-03-21T21:07:15.764Z,96985.47
2023-03-21T21:09:43.576Z,96974.44
2023-03-21T21:12:10.319Z,96972.69
2023-03-21T21:14:37.253Z,96974.66
2023-03-21T21:17:23.804Z,96978.50
2023-03-21T21:19:51.532Z,96995.72
2023-03-21T21:22:18.285Z,96996.56
2023-03-21T21:24:44.740Z,96989.09
2023-03-21T21:27:11.864Z,96983.25
2023-03-21T21:29:38.366Z,96981.22
2023-03-21T21:32:05.216Z,96984.44
2023-03-21T21:34:32.164Z,96984.13
2023-03-21T21:36:58.782Z,96982.75
2023-03-21T21:39:26.516Z,96980.44
2023-03-21T21:41:53.828Z,96987.56
2023-03-21T21:44:20.321Z,96967.25
2023-03-21T21:46:47.079Z,96969.81
2023-03-21T21:49:13.634Z,96957.44
2023-03-21T21:51:41.783Z,96962.78
2023-03-21T21:54:08.224Z,96960.69
2023-03-21T21:56:36.956Z,96958.53
2023-03-21T21:59:04.489Z,96958.31
2023-03-21T22:01:34.665Z,96966.28
2023-03-21T22:04:06.327Z,96955.81
2023-03-21T22:06:33.881Z,96950.38
2023-03-21T22:09:00.962Z,96949.75
2023-03-21T22:11:27.357Z,96949.50
2023-03-21T22:13:53.710Z,96940.91
2023-03-21T22:16:20.492Z,96950.13
2023-03-21T22:18:47.116Z,96946.69
2023-03-21T22:21:13.732Z,96936.72
2023-03-21T22:23:42.869Z,96948.31
2023-03-21T22:26:10.513Z,96943.97
2023-03-21T22:28:40.095Z,96944.19
2023-03-21T22:31:13.748Z,96938.59
2023-03-21T22:33:41.103Z,96950.38
2023-03-21T22:36:08.035Z,96942.63
2023-03-21T22:38:34.794Z,96944.53
2023-03-21T22:41:03.472Z,96947.13
2023-03-21T22:43:34.264Z,96948.09
2023-03-21T22:46:05.312Z,96942.22
2023-03-21T22:48:32.274Z,96954.34
2023-03-21T22:50:59.645Z,96952.38
2023-03-21T22:53:26.373Z,96943.91
2023-03-21T22:55:53.052Z,96938.09
2023-03-21T22:58:19.461Z,96950.16
2023-03-21T23:00:45.962Z,96941.69
2023-03-21T23:03:14.470Z,96944.53
2023-03-21T23:05:41.260Z,96945.38
2023-03-21T23:08:07.654Z,96941.53
2023-03-21T23:10:34.159Z,96941.06
2023-03-21T23:13:00.582Z,96935.66
2023-03-21T23:15:26.955Z,96937.69
2023-03-21T23:17:53.302Z,96940.28
2023-03-21T23:20:19.680Z,96940.56
2023-03-21T23:22:46.032Z,96943.28
2023-03-21T23:25:12.656Z,96933.44
2023-03-21T23:27:39.098Z,96940.63
2023-03-21T23:30:06.494Z,96941.16
2023-03-21T23:32:33.364Z,96930.13
2023-03-21T23:34:59.813Z,96934.47
2023-03-21T23:37:26.183Z,96930.03
2023-03-21T23:39:55.173Z,96920.59
2023-03-21T23:42:22.329Z,96940.09
2023-03-21T23:44:48.723Z,96924.59
2023-03-21T23:47:17.789Z,96932.53
2023-03-21T23:49:49.160Z,96932.53
2023-03-21T23:52:16.353Z,96916.81
2023-03-21T23:54:42.752Z,96922.94
2023-03-21T23:57:09.454Z,96912.56
2023-03-21T23:59:35.821Z,96921.06
